createdAt,value
2022-12-20T00:00:34.403Z,50.902431
2022-12-20T00:01:34.491Z,50.902405
2022-12-20T00:02:33.564Z,50.902477
2022-12-20T00:03:36.385Z,50.902458
2022-12-20T00:04:33.921Z,50.902424
2022-12-20T00:05:34.659Z,50.902439
2022-12-20T00:06:35.419Z,50.902431
2022-12-20T00:07:34.343Z,50.902458
2022-12-20T00:08:34.424Z,50.902454
2022-12-20T00:09:34.373Z,50.902466
2022-12-20T00:10:36.383Z,50.902462
2022-12-20T00:11:33.919Z,50.902481
2022-12-20T00:12:33.928Z,50.902470
2022-12-20T00:13:33.848Z,50.902458
2022-12-20T00:14:34.896Z,50.902485
2022-12-20T00:15:34.908Z,50.902515
2022-12-20T00:16:32.422Z,50.902458
2022-12-20T00:17:33.006Z,50.902458
2022-12-20T00:18:33.382Z,50.902466
2022-12-20T00:19:36.394Z,50.902454
2022-12-20T00:20:33.571Z,50.902473
2022-12-20T00:21:32.836Z,50.902462
2022-12-20T00:22:35.430Z,50.902477
2022-12-20T00:23:33.411Z,50.902435
2022-12-20T00:24:34.405Z,50.902462
2022-12-20T00:25:33.342Z,50.902462
2022-12-20T00:26:34.421Z,50.902477
2022-12-20T00:27:35.343Z,50.902451
2022-12-20T00:28:34.848Z,50.902435
2022-12-20T00:29:33.914Z,50.902439
2022-12-20T00:30:32.902Z,50.902504
2022-12-20T00:31:34.355Z,50.902534
2022-12-20T00:32:34.884Z,50.902470
2022-12-20T00:33:34.343Z,50.902493
2022-12-20T00:34:39.498Z,50.902458
2022-12-20T00:35:34.857Z,50.902470
2022-12-20T00:36:34.868Z,50.902431
2022-12-20T00:37:35.839Z,50.902458
2022-12-20T00:38:34.352Z,50.902451
2022-12-20T00:39:34.929Z,50.902443
2022-12-20T00:40:33.404Z,50.902523
2022-12-20T00:41:33.387Z,50.902515
2022-12-20T00:42:34.847Z,50.902504
2022-12-20T00:43:34.382Z,50.902466
2022-12-20T00:44:34.385Z,50.902382
2022-12-20T00:45:32.409Z,50.902420
2022-12-20T00:46:33.936Z,50.902428
2022-12-20T00:47:35.377Z,50.902454
2022-12-20T00:48:33.916Z,50.902481
2022-12-20T00:49:33.843Z,50.902439
2022-12-20T00:50:34.346Z,50.902466
2022-12-20T00:51:36.351Z,50.902462
2022-12-20T00:52:34.862Z,50.902500
2022-12-20T00:53:33.843Z,50.902451
2022-12-20T00:54:32.347Z,50.902470
2022-12-20T00:55:32.430Z,50.902481
2022-12-20T00:56:33.342Z,50.902428
2022-12-20T00:57:33.931Z,50.902435
2022-12-20T00:58:33.385Z,50.902435
2022-12-20T00:59:33.275Z,50.902443
2022-12-20T01:00:34.982Z,50.902462
2022-12-20T01:01:36.048Z,50.902477
2022-12-20T01:02:35.535Z,50.902458
2022-12-20T01:03:32.476Z,50.902462
2022-12-20T01:04:33.426Z,50.902477
2022-12-20T01:05:32.595Z,50.902466
2022-12-20T01:06:34.405Z,50.902470
2022-12-20T01:07:34.345Z,50.902462
2022-12-20T01:08:34.391Z,50.902473
2022-12-20T01:09:33.444Z,50.902477
2022-12-20T01:10:32.896Z,50.902473
2022-12-20T01:11:33.379Z,50.902454
2022-12-20T01:12:32.595Z,50.902485
2022-12-20T01:13:35.365Z,50.902477
2022-12-20T01:14:34.346Z,50.902454
2022-12-20T01:15:32.926Z,50.902451
2022-12-20T01:16:33.905Z,50.902466
2022-12-20T01:17:33.916Z,50.902458
2022-12-20T01:18:35.349Z,50.902458
2022-12-20T01:19:33.350Z,50.902466
2022-12-20T01:20:32.849Z,50.902454
2022-12-20T01:21:35.875Z,50.902462
2022-12-20T01:22:42.400Z,50.902473
2022-12-20T01:23:34.416Z,50.902451
2022-12-20T01:24:33.864Z,50.902447
2022-12-20T01:25:35.347Z,50.902435
2022-12-20T01:26:35.348Z,50.902435
2022-12-20T01:27:33.083Z,50.902431
2022-12-20T01:28:34.848Z,50.902424
2022-12-20T01:29:32.921Z,50.902428
2022-12-20T01:30:34.844Z,50.902443
2022-12-20T01:31:34.953Z,50.902454
2022-12-20T01:32:33.411Z,50.902489
2022-12-20T01:33:33.848Z,50.902447
2022-12-20T01:34:34.860Z,50.902424
2022-12-20T01:35:32.849Z,50.902435
2022-12-20T01:36:33.853Z,50.902439
2022-12-20T01:37:32.369Z,50.902435
2022-12-20T01:38:33.914Z,50.902443
2022-12-20T01:39:32.078Z,50.902431
2022-12-20T01:40:34.848Z,50.902443
2022-12-20T01:41:32.849Z,50.902431
2022-12-20T01:42:33.381Z,50.902458
2022-12-20T01:43:34.371Z,50.902473
2022-12-20T01:44:33.909Z,50.902447
2022-12-20T01:45:34.397Z,50.902431
2022-12-20T01:46:35.457Z,50.902439
2022-12-20T01:47:33.352Z,50.902416
2022-12-20T01:48:31.927Z,50.902420
2022-12-20T01:49:33.348Z,50.902470
2022-12-20T01:50:33.594Z,50.902424
2022-12-20T01:51:32.581Z,50.902435
2022-12-20T01:52:31.055Z,50.902443
2022-12-20T01:53:31.063Z,50.902439
2022-12-20T01:54:31.040Z,50.902439
2022-12-20T01:55:31.040Z,50.902374
2022-12-20T01:56:31.026Z,50.902393
2022-12-20T01:57:31.005Z,50.902397
2022-12-20T01:58:31.050Z,50.902378
2022-12-20T01:59:31.009Z,50.902397
2022-12-20T02:00:30.981Z,50.902401
2022-12-20T02:01:31.033Z,50.902420
2022-12-20T02:02:31.050Z,50.902409
2022-12-20T02:03:31.093Z,50.902420
2022-12-20T02:04:30.976Z,50.902401
2022-12-20T02:05:30.963Z,50.902386
2022-12-20T02:06:30.932Z,50.902386
2022-12-20T02:07:30.930Z,50.902393
2022-12-20T02:08:30.940Z,50.902390
2022-12-20T02:09:30.908Z,50.902382
2022-12-20T02:10:30.910Z,50.902431
2022-12-20T02:11:30.895Z,50.902431
2022-12-20T02:12:30.889Z,50.902431
2022-12-20T02:13:30.950Z,50.902428
2022-12-20T02:14:30.875Z,50.902397
2022-12-20T02:15:30.872Z,50.902390
2022-12-20T02:16:30.890Z,50.902397
2022-12-20T02:17:30.857Z,50.902401
2022-12-20T02:18:30.879Z,50.902435
2022-12-20T02:19:30.834Z,50.902405
2022-12-20T02:20:30.832Z,50.902382
2022-12-20T02:21:30.821Z,50.902397
2022-12-20T02:22:30.814Z,50.902378
2022-12-20T02:23:30.839Z,50.902443
2022-12-20T02:24:30.802Z,50.902405
2022-12-20T02:25:30.792Z,50.902370
2022-12-20T02:26:30.808Z,50.902359
2022-12-20T02:27:30.790Z,50.902374
2022-12-20T02:28:30.784Z,50.902382
2022-12-20T02:29:30.762Z,50.902382
2022-12-20T02:30:30.750Z,50.902393
2022-12-20T02:31:30.766Z,50.902397
2022-12-20T02:32:30.737Z,50.902367
2022-12-20T02:33:30.756Z,50.902344
2022-12-20T02:34:30.717Z,50.902348
2022-12-20T02:35:31.575Z,50.902348
2022-12-20T02:36:30.712Z,50.902340
2022-12-20T02:37:30.700Z,50.902340
2022-12-20T02:38:30.730Z,50.902420
2022-12-20T02:39:30.682Z,50.902370
2022-12-20T02:40:30.672Z,50.902382
2022-12-20T02:41:30.663Z,50.902424
2022-12-20T02:42:30.671Z,50.902401
2022-12-20T02:43:30.675Z,50.902485
2022-12-20T02:44:30.644Z,50.902397
2022-12-20T02:45:30.630Z,50.902401
2022-12-20T02:46:30.677Z,50.902390
2022-12-20T02:47:30.614Z,50.902416
2022-12-20T02:48:30.640Z,50.902428
2022-12-20T02:49:30.608Z,50.902412
2022-12-20T02:50:30.613Z,50.902401
2022-12-20T02:51:30.588Z,50.902386
2022-12-20T02:52:30.578Z,50.902397
2022-12-20T02:53:30.596Z,50.902393
2022-12-20T02:54:30.567Z,50.902401
2022-12-20T02:55:30.571Z,50.902386
2022-12-20T02:56:30.559Z,50.902397
2022-12-20T02:57:30.550Z,50.902390
2022-12-20T02:58:30.564Z,50.902397
2022-12-20T02:59:30.539Z,50.902390
2022-12-20T03:00:30.517Z,50.902386
2022-12-20T03:01:30.680Z,50.902386
2022-12-20T03:02:30.719Z,50.902393
2022-12-20T03:03:30.581Z,50.902424
2022-12-20T03:04:30.492Z,50.902382
2022-12-20T03:05:30.480Z,50.902374
2022-12-20T03:06:30.479Z,50.902393
2022-12-20T03:07:30.471Z,50.902401
2022-12-20T03:08:30.503Z,50.902405
2022-12-20T03:09:30.472Z,50.902420
2022-12-20T03:10:30.444Z,50.902420
2022-12-20T03:11:30.436Z,50.902420
2022-12-20T03:12:30.436Z,50.902386
2022-12-20T03:13:30.460Z,50.902370
2022-12-20T03:14:30.427Z,50.902363
2022-12-20T03:15:30.409Z,50.902393
2022-12-20T03:16:30.449Z,50.902401
2022-12-20T03:17:30.392Z,50.902397
2022-12-20T03:18:30.412Z,50.902332
2022-12-20T03:19:30.382Z,50.902401
2022-12-20T03:20:30.383Z,50.902397
2022-12-20T03:21:30.361Z,50.902401
2022-12-20T03:22:30.347Z,50.902386
2022-12-20T03:23:30.370Z,50.902416
2022-12-20T03:24:30.340Z,50.902393
2022-12-20T03:25:30.332Z,50.902412
2022-12-20T03:26:30.330Z,50.902355
2022-12-20T03:27:30.337Z,50.902393
2022-12-20T03:28:30.395Z,50.902416
2022-12-20T03:29:30.297Z,50.902428
2022-12-20T03:30:30.310Z,50.902447
2022-12-20T03:31:30.372Z,50.902397
2022-12-20T03:32:30.279Z,50.902409
2022-12-20T03:33:30.268Z,50.902435
2022-12-20T03:34:30.293Z,50.902409
2022-12-20T03:35:30.252Z,50.902409
2022-12-20T03:36:30.246Z,50.902386
2022-12-20T03:37:30.237Z,50.902378
2022-12-20T03:38:30.234Z,50.902382
2022-12-20T03:39:30.269Z,50.902401
2022-12-20T03:40:30.206Z,50.902416
2022-12-20T03:41:30.215Z,50.902412
2022-12-20T03:42:30.220Z,50.902370
2022-12-20T03:43:30.215Z,50.902412
2022-12-20T03:44:30.276Z,50.902401
2022-12-20T03:45:30.183Z,50.902443
2022-12-20T03:46:30.241Z,50.902454
2022-12-20T03:47:30.167Z,50.902439
2022-12-20T03:48:30.153Z,50.902401
2022-12-20T03:49:30.177Z,50.902393
2022-12-20T03:50:30.147Z,50.902439
2022-12-20T03:51:30.134Z,50.902439
2022-12-20T03:52:30.128Z,50.902412
2022-12-20T03:53:30.126Z,50.902405
2022-12-20T03:54:30.134Z,50.902412
2022-12-20T03:55:30.160Z,50.902439
2022-12-20T03:56:30.093Z,50.902431
2022-12-20T03:57:30.082Z,50.902405
2022-12-20T03:58:30.075Z,50.902428
2022-12-20T03:59:30.099Z,50.902439
2022-12-20T04:00:30.074Z,50.902382
2022-12-20T04:01:30.158Z,50.902390
2022-12-20T04:02:31.184Z,50.902397
2022-12-20T04:03:30.212Z,50.902374
2022-12-20T04:04:30.068Z,50.902363
2022-12-20T04:05:30.030Z,50.902393
2022-12-20T04:06:30.046Z,50.902393
2022-12-20T04:07:30.013Z,50.902390
2022-12-20T04:08:30.010Z,50.902374
2022-12-20T04:09:30.021Z,50.902328
2022-12-20T04:10:29.987Z,50.902351
2022-12-20T04:11:29.982Z,50.902313
2022-12-20T04:12:29.974Z,50.902420
2022-12-20T04:13:29.971Z,50.902420
2022-12-20T04:14:29.980Z,50.902367
2022-12-20T04:15:30.012Z,50.902420
2022-12-20T04:16:30.072Z,50.902435
2022-12-20T04:17:29.954Z,50.902504
2022-12-20T04:18:29.933Z,50.902454
2022-12-20T04:19:29.957Z,50.902447
2022-12-20T04:20:29.908Z,50.902473
2022-12-20T04:21:29.906Z,50.902443
2022-12-20T04:22:29.900Z,50.902458
2022-12-20T04:23:29.891Z,50.902416
2022-12-20T04:24:29.907Z,50.902405
2022-12-20T04:25:29.871Z,50.902420
2022-12-20T04:26:29.867Z,50.902435
2022-12-20T04:27:29.857Z,50.902462
2022-12-20T04:28:29.853Z,50.902462
2022-12-20T04:29:29.885Z,50.902424
2022-12-20T04:30:29.857Z,50.902458
2022-12-20T04:31:29.894Z,50.902431
2022-12-20T04:32:29.820Z,50.902412
2022-12-20T04:33:29.823Z,50.902393
2022-12-20T04:34:29.852Z,50.902401
2022-12-20T04:35:29.805Z,50.902409
2022-12-20T04:36:29.800Z,50.902386
2022-12-20T04:37:29.787Z,50.902370
2022-12-20T04:38:29.784Z,50.902409
2022-12-20T04:39:29.814Z,50.902401
2022-12-20T04:40:29.757Z,50.902454
2022-12-20T04:41:29.757Z,50.902451
2022-12-20T04:42:29.747Z,50.902454
2022-12-20T04:43:29.741Z,50.902409
2022-12-20T04:44:29.762Z,50.902412
2022-12-20T04:45:29.724Z,50.902405
2022-12-20T04:46:29.779Z,50.902428
2022-12-20T04:47:29.723Z,50.902397
2022-12-20T04:48:55.747Z,50.902405
2022-12-20T04:49:31.726Z,50.902405
2022-12-20T04:50:29.695Z,50.902420
2022-12-20T04:51:29.688Z,50.902420
2022-12-20T04:52:29.673Z,50.902405
2022-12-20T04:53:29.661Z,50.902409
2022-12-20T04:54:29.666Z,50.902431
2022-12-20T04:55:29.675Z,50.902382
2022-12-20T04:56:29.641Z,50.902363
2022-12-20T04:57:29.627Z,50.902367
2022-12-20T04:58:29.632Z,50.902390
2022-12-20T04:59:29.623Z,50.902367
2022-12-20T05:00:29.639Z,50.902401
2022-12-20T05:01:29.728Z,50.902355
2022-12-20T05:02:29.670Z,50.902344
2022-12-20T05:03:29.660Z,50.902374
2022-12-20T05:04:35.313Z,50.902370
2022-12-20T05:05:31.603Z,50.902397
2022-12-20T05:06:29.600Z,50.902397
2022-12-20T05:07:29.553Z,50.902416
2022-12-20T05:08:30.554Z,50.902424
2022-12-20T05:09:29.547Z,50.902397
2022-12-20T05:10:29.560Z,50.902374
2022-12-20T05:11:29.531Z,50.902359
2022-12-20T05:12:29.526Z,50.902382
2022-12-20T05:13:29.546Z,50.902370
2022-12-20T05:14:29.515Z,50.902386
2022-12-20T05:15:29.528Z,50.902370
2022-12-20T05:16:29.543Z,50.902386
2022-12-20T05:17:29.524Z,50.902359
2022-12-20T05:18:29.480Z,50.902374
2022-12-20T05:19:29.477Z,50.902355
2022-12-20T05:20:29.488Z,50.902397
2022-12-20T05:21:29.460Z,50.902397
2022-12-20T05:22:29.453Z,50.902382
2022-12-20T05:23:29.445Z,50.902435
2022-12-20T05:24:29.432Z,50.902386
2022-12-20T05:25:29.492Z,50.902370
2022-12-20T05:26:29.422Z,50.902393
2022-12-20T05:27:29.410Z,50.902416
2022-12-20T05:28:29.406Z,50.902412
2022-12-20T05:29:29.401Z,50.902428
2022-12-20T05:30:30.421Z,50.902412
2022-12-20T05:31:29.428Z,50.902401
2022-12-20T05:32:29.374Z,50.902466
2022-12-20T05:33:34.047Z,50.902447
2022-12-20T05:34:31.375Z,50.902443
2022-12-20T05:35:29.397Z,50.902420
2022-12-20T05:36:29.343Z,50.902355
2022-12-20T05:37:29.327Z,50.902412
2022-12-20T05:38:29.347Z,50.902435
2022-12-20T05:39:30.316Z,50.902431
2022-12-20T05:40:29.340Z,50.902428
2022-12-20T05:41:29.305Z,50.902412
2022-12-20T05:42:29.288Z,50.902405
2022-12-20T05:43:29.289Z,50.902447
2022-12-20T05:44:29.305Z,50.902435
2022-12-20T05:45:29.295Z,50.902409
2022-12-20T05:46:29.331Z,50.902405
2022-12-20T05:47:29.332Z,50.902363
2022-12-20T05:48:29.235Z,50.902443
2022-12-20T05:49:29.240Z,50.902439
2022-12-20T05:50:29.283Z,50.902416
2022-12-20T05:51:29.219Z,50.902382
2022-12-20T05:52:29.211Z,50.902458
2022-12-20T05:53:29.215Z,50.902451
2022-12-20T05:54:29.198Z,50.902412
2022-12-20T05:55:29.221Z,50.902431
2022-12-20T05:56:29.178Z,50.902473
2022-12-20T05:57:29.176Z,50.902485
2022-12-20T05:58:29.174Z,50.902458
2022-12-20T05:59:29.185Z,50.902420
2022-12-20T06:00:29.185Z,50.902409
2022-12-20T06:01:29.218Z,50.902428
2022-12-20T06:02:29.442Z,50.902454
2022-12-20T06:03:29.251Z,50.902405
2022-12-20T06:04:29.125Z,50.902409
2022-12-20T06:05:29.135Z,50.902409
2022-12-20T06:06:29.100Z,50.902439
2022-12-20T06:07:29.179Z,50.902439
2022-12-20T06:08:29.089Z,50.902435
2022-12-20T06:09:29.088Z,50.902431
2022-12-20T06:10:29.104Z,50.902454
2022-12-20T06:11:30.365Z,50.902477
2022-12-20T06:12:30.077Z,50.902466
2022-12-20T06:13:29.057Z,50.902496
2022-12-20T06:14:29.049Z,50.902489
2022-12-20T06:15:29.042Z,50.902439
2022-12-20T06:16:29.084Z,50.902443
2022-12-20T06:17:29.027Z,50.902473
2022-12-20T06:18:29.024Z,50.902431
2022-12-20T06:19:29.037Z,50.902428
2022-12-20T06:20:29.015Z,50.902412
2022-12-20T06:21:29.112Z,50.902435
2022-12-20T06:22:28.986Z,50.902473
2022-12-20T06:23:28.990Z,50.902458
2022-12-20T06:24:28.978Z,50.902458
2022-12-20T06:25:28.975Z,50.902462
2022-12-20T06:26:28.996Z,50.902397
2022-12-20T06:27:28.956Z,50.902412
2022-12-20T06:28:28.947Z,50.902451
2022-12-20T06:29:28.945Z,50.902443
2022-12-20T06:30:33.668Z,50.902462
2022-12-20T06:31:31.003Z,50.902473
2022-12-20T06:32:28.946Z,50.902447
2022-12-20T06:33:28.922Z,50.902390
2022-12-20T06:34:28.901Z,50.902431
2022-12-20T06:35:28.906Z,50.902515
2022-12-20T06:36:28.920Z,50.902481
2022-12-20T06:37:28.876Z,50.902431
2022-12-20T06:38:28.874Z,50.902412
2022-12-20T06:39:28.870Z,50.902405
2022-12-20T06:40:28.856Z,50.902428
2022-12-20T06:41:28.878Z,50.902412
2022-12-20T06:42:28.832Z,50.902458
2022-12-20T06:43:28.845Z,50.902443
2022-12-20T06:44:28.827Z,50.902458
2022-12-20T06:45:28.854Z,50.902428
2022-12-20T06:46:28.869Z,50.902409
2022-12-20T06:47:28.806Z,50.902451
2022-12-20T06:48:28.824Z,50.902405
2022-12-20T06:49:28.784Z,50.902401
2022-12-20T06:50:28.778Z,50.902367
2022-12-20T06:51:28.808Z,50.902454
2022-12-20T06:52:28.771Z,50.902397
2022-12-20T06:53:28.762Z,50.902412
2022-12-20T06:54:28.744Z,50.902462
2022-12-20T06:55:28.736Z,50.902393
2022-12-20T06:56:28.754Z,50.902420
2022-12-20T06:57:28.729Z,50.902416
2022-12-20T06:58:28.724Z,50.902451
2022-12-20T06:59:28.713Z,50.902405
2022-12-20T07:00:28.702Z,50.902363
2022-12-20T07:01:28.839Z,50.902386
2022-12-20T07:02:28.895Z,50.902340
2022-12-20T07:03:28.803Z,50.902355
2022-12-20T07:04:29.669Z,50.902367
2022-12-20T07:05:28.662Z,50.902390
2022-12-20T07:06:28.677Z,50.902412
2022-12-20T07:07:28.650Z,50.902428
2022-12-20T07:08:28.641Z,50.902367
2022-12-20T07:09:28.640Z,50.902397
2022-12-20T07:10:28.619Z,50.902386
2022-12-20T07:11:28.703Z,50.902409
2022-12-20T07:12:28.620Z,50.902390
2022-12-20T07:13:28.629Z,50.902374
2022-12-20T07:14:28.606Z,50.902393
2022-12-20T07:15:28.579Z,50.902374
2022-12-20T07:16:29.667Z,50.902409
2022-12-20T07:17:28.571Z,50.902412
2022-12-20T07:18:28.568Z,50.902439
2022-12-20T07:19:28.635Z,50.902435
2022-12-20T07:20:28.545Z,50.902462
2022-12-20T07:21:28.561Z,50.902447
2022-12-20T07:22:28.538Z,50.902431
2022-12-20T07:23:28.573Z,50.902420
2022-12-20T07:24:28.521Z,50.902443
2022-12-20T07:25:28.518Z,50.902401
2022-12-20T07:26:28.532Z,50.902378
2022-12-20T07:27:28.493Z,50.902374
2022-12-20T07:28:28.489Z,50.902420
2022-12-20T07:29:28.485Z,50.902435
2022-12-20T07:30:28.473Z,50.902420
2022-12-20T07:31:28.527Z,50.902424
2022-12-20T07:32:28.479Z,50.902443
2022-12-20T07:33:28.458Z,50.902428
2022-12-20T07:34:28.440Z,50.902424
2022-12-20T07:35:28.465Z,50.902416
2022-12-20T07:36:28.454Z,50.902420
2022-12-20T07:37:28.423Z,50.902431
2022-12-20T07:38:28.409Z,50.902424
2022-12-20T07:39:28.407Z,50.902424
2022-12-20T07:40:28.553Z,50.902458
2022-12-20T07:41:28.431Z,50.902447
2022-12-20T07:42:36.148Z,50.902454
2022-12-20T07:43:29.372Z,50.902435
2022-12-20T07:44:28.374Z,50.902435
2022-12-20T07:45:28.420Z,50.902443
2022-12-20T07:46:28.487Z,50.902435
2022-12-20T07:47:28.347Z,50.902447
2022-12-20T07:48:28.335Z,50.902447
2022-12-20T07:49:28.332Z,50.902431
2022-12-20T07:50:28.489Z,50.902443
2022-12-20T07:51:29.339Z,50.902447
2022-12-20T07:52:28.311Z,50.902435
2022-12-20T07:53:28.317Z,50.902435
2022-12-20T07:54:28.286Z,50.902431
2022-12-20T07:55:29.284Z,50.902443
2022-12-20T07:56:28.302Z,50.902443
2022-12-20T07:57:28.271Z,50.902443
2022-12-20T07:58:28.288Z,50.902447
2022-12-20T07:59:28.256Z,50.902447
2022-12-20T08:00:28.247Z,50.902462
2022-12-20T08:01:28.407Z,50.902466
2022-12-20T08:02:28.348Z,50.902431
2022-12-20T08:03:28.410Z,50.902454
2022-12-20T08:04:28.237Z,50.902443
2022-12-20T08:05:28.207Z,50.902439
2022-12-20T08:06:28.255Z,50.902451
2022-12-20T08:07:28.196Z,50.902447
2022-12-20T08:08:28.190Z,50.902489
2022-12-20T08:09:28.181Z,50.902477
2022-12-20T08:10:28.206Z,50.902485
2022-12-20T08:11:28.185Z,50.902458
2022-12-20T08:12:28.169Z,50.902454
2022-12-20T08:13:28.151Z,50.902473
2022-12-20T08:14:28.156Z,50.902473
2022-12-20T08:15:28.159Z,50.902500
2022-12-20T08:16:28.189Z,50.902489
2022-12-20T08:17:29.127Z,50.902500
2022-12-20T08:18:28.110Z,50.902485
2022-12-20T08:19:32.216Z,50.902500
2022-12-20T08:20:29.165Z,50.902489
2022-12-20T08:21:28.122Z,50.902451
2022-12-20T08:22:28.105Z,50.902454
2022-12-20T08:23:28.077Z,50.902431
2022-12-20T08:24:28.067Z,50.902473
2022-12-20T08:25:28.054Z,50.902481
2022-12-20T08:26:28.058Z,50.902420
2022-12-20T08:27:28.070Z,50.902416
2022-12-20T08:28:28.023Z,50.902355
2022-12-20T08:29:29.052Z,50.902435
2022-12-20T08:30:28.012Z,50.902424
2022-12-20T08:31:28.102Z,50.902416
2022-12-20T08:32:28.028Z,50.902454
2022-12-20T08:33:28.003Z,50.902470
2022-12-20T08:34:27.999Z,50.902435
2022-12-20T08:35:27.974Z,50.902397
2022-12-20T08:36:27.978Z,50.902435
2022-12-20T08:37:28.011Z,50.902424
2022-12-20T08:38:27.960Z,50.902443
2022-12-20T08:39:27.947Z,50.902584
2022-12-20T08:40:27.940Z,50.902557
2022-12-20T08:41:27.934Z,50.902527
2022-12-20T08:42:27.960Z,50.902435
2022-12-20T08:43:27.919Z,50.902420
2022-12-20T08:44:27.919Z,50.902470
2022-12-20T08:45:27.904Z,50.902473
2022-12-20T08:46:27.981Z,50.902534
2022-12-20T08:47:27.918Z,50.902386
2022-12-20T08:48:27.899Z,50.902397
2022-12-20T08:49:27.882Z,50.902199
2022-12-20T08:50:27.874Z,50.902248
2022-12-20T08:51:27.891Z,50.902378
2022-12-20T08:52:27.880Z,50.902588
2022-12-20T08:53:27.847Z,50.902729
2022-12-20T08:54:27.857Z,50.902859
2022-12-20T08:55:27.994Z,50.902985
2022-12-20T08:56:28.823Z,50.902878
2022-12-20T08:57:27.844Z,50.902908
2022-12-20T08:58:27.818Z,50.902809
2022-12-20T08:59:27.806Z,50.902782
2022-12-20T09:00:27.796Z,50.902718
2022-12-20T09:01:27.940Z,50.902424
2022-12-20T09:02:27.940Z,50.902393
2022-12-20T09:03:27.818Z,50.902405
2022-12-20T09:04:27.785Z,50.902412
2022-12-20T09:05:27.763Z,50.902416
2022-12-20T09:06:27.752Z,50.902390
2022-12-20T09:07:27.784Z,50.902405
2022-12-20T09:08:27.754Z,50.902378
2022-12-20T09:09:27.729Z,50.902431
2022-12-20T09:10:27.728Z,50.902382
2022-12-20T09:11:27.720Z,50.902363
2022-12-20T09:12:27.726Z,50.902496
2022-12-20T09:13:27.792Z,50.902435
2022-12-20T09:14:27.723Z,50.902431
2022-12-20T09:15:27.777Z,50.902393
2022-12-20T09:16:27.741Z,50.902393
2022-12-20T09:17:27.696Z,50.902370
2022-12-20T09:18:27.662Z,50.902466
2022-12-20T09:19:27.660Z,50.902534
2022-12-20T09:20:27.647Z,50.902618
2022-12-20T09:21:27.642Z,50.902714
2022-12-20T09:22:27.663Z,50.902790
2022-12-20T09:23:27.623Z,50.902363
2022-12-20T09:24:27.613Z,50.902397
2022-12-20T09:25:27.612Z,50.902393
2022-12-20T09:26:27.620Z,50.902386
2022-12-20T09:27:27.630Z,50.902420
2022-12-20T09:28:27.591Z,50.902412
2022-12-20T09:29:35.123Z,50.902397
2022-12-20T09:30:29.580Z,50.902412
2022-12-20T09:31:27.646Z,50.902393
2022-12-20T09:32:27.594Z,50.902397
2022-12-20T09:33:27.562Z,50.902390
2022-12-20T09:34:27.543Z,50.902374
2022-12-20T09:35:27.548Z,50.902386
2022-12-20T09:36:27.543Z,50.902397
2022-12-20T09:37:29.528Z,50.902424
2022-12-20T09:38:27.519Z,50.902378
2022-12-20T09:39:27.522Z,50.902378
2022-12-20T09:40:27.509Z,50.902382
2022-12-20T09:41:27.502Z,50.902416
2022-12-20T09:42:27.512Z,50.902428
2022-12-20T09:43:27.482Z,50.902393
2022-12-20T09:44:27.478Z,50.902409
2022-12-20T09:45:27.572Z,50.902428
2022-12-20T09:46:27.529Z,50.902420
2022-12-20T09:47:27.471Z,50.902424
2022-12-20T09:48:27.449Z,50.902386
2022-12-20T09:49:27.438Z,50.902416
2022-12-20T09:50:27.439Z,50.902447
2022-12-20T09:51:27.425Z,50.902420
2022-12-20T09:52:27.464Z,50.902435
2022-12-20T09:53:27.406Z,50.902409
2022-12-20T09:54:27.410Z,50.902420
2022-12-20T09:55:27.420Z,50.902424
2022-12-20T09:56:27.391Z,50.902416
2022-12-20T09:57:27.412Z,50.902435
2022-12-20T09:58:27.369Z,50.902405
2022-12-20T09:59:27.360Z,50.902390
2022-12-20T10:00:27.342Z,50.902412
2022-12-20T10:01:32.584Z,50.902390
2022-12-20T10:02:57.118Z,50.902416
2022-12-20T10:03:29.570Z,50.902298
2022-12-20T10:04:27.644Z,50.902336
2022-12-20T10:05:27.431Z,50.902374
2022-12-20T10:06:27.322Z,50.902416
2022-12-20T10:07:27.329Z,50.902420
2022-12-20T10:08:27.319Z,50.902435
2022-12-20T10:09:27.276Z,50.902416
2022-12-20T10:10:27.277Z,50.902405
2022-12-20T10:11:29.610Z,50.902397
2022-12-20T10:12:28.294Z,50.902435
2022-12-20T10:13:27.247Z,50.902424
2022-12-20T10:14:27.276Z,50.902435
2022-12-20T10:15:27.240Z,50.902439
2022-12-20T10:16:27.328Z,50.902393
2022-12-20T10:17:32.239Z,50.902473
2022-12-20T10:18:29.237Z,50.902431
2022-12-20T10:19:27.212Z,50.902401
2022-12-20T10:20:27.205Z,50.902412
2022-12-20T10:21:27.190Z,50.902393
2022-12-20T10:22:27.185Z,50.902431
2022-12-20T10:23:33.032Z,50.902386
2022-12-20T10:24:29.185Z,50.902412
2022-12-20T10:25:27.157Z,50.902378
2022-12-20T10:26:27.176Z,50.902393
2022-12-20T10:27:27.152Z,50.902447
2022-12-20T10:28:27.171Z,50.902424
2022-12-20T10:29:27.124Z,50.902393
2022-12-20T10:30:27.129Z,50.902393
2022-12-20T10:31:27.175Z,50.902412
2022-12-20T10:32:27.142Z,50.902424
2022-12-20T10:33:27.123Z,50.902443
2022-12-20T10:34:31.686Z,50.902431
2022-12-20T10:35:29.112Z,50.902435
2022-12-20T10:36:27.338Z,50.902416
2022-12-20T10:37:27.073Z,50.902431
2022-12-20T10:38:27.092Z,50.902443
2022-12-20T10:39:27.046Z,50.902416
2022-12-20T10:40:46.368Z,50.902397
2022-12-20T10:41:29.030Z,50.902431
2022-12-20T10:42:27.076Z,50.902443
2022-12-20T10:43:27.044Z,50.902420
2022-12-20T10:44:27.023Z,50.902420
2022-12-20T10:45:32.554Z,50.902367
2022-12-20T10:46:29.042Z,50.902393
2022-12-20T10:47:26.983Z,50.902401
2022-12-20T10:48:27.010Z,50.902390
2022-12-20T10:49:26.976Z,50.902401
2022-12-20T10:50:26.965Z,50.902359
2022-12-20T10:51:26.975Z,50.902363
2022-12-20T10:52:26.945Z,50.902386
2022-12-20T10:53:27.947Z,50.902386
2022-12-20T10:54:27.244Z,50.902405
2022-12-20T10:55:26.940Z,50.902416
2022-12-20T10:56:26.914Z,50.902409
2022-12-20T10:57:26.917Z,50.902424
2022-12-20T10:58:26.913Z,50.902412
2022-12-20T10:59:26.922Z,50.902439
2022-12-20T11:00:26.882Z,50.902412
2022-12-20T11:01:26.979Z,50.902405
2022-12-20T11:02:29.268Z,50.902370
2022-12-20T11:03:28.036Z,50.902401
2022-12-20T11:04:26.926Z,50.902397
2022-12-20T11:05:26.860Z,50.902409
2022-12-20T11:06:26.845Z,50.902393
2022-12-20T11:07:26.941Z,50.902420
2022-12-20T11:08:40.457Z,50.902424
2022-12-20T11:09:28.863Z,50.902435
2022-12-20T11:10:26.806Z,50.902431
2022-12-20T11:11:26.817Z,50.902416
2022-12-20T11:12:26.793Z,50.902416
2022-12-20T11:13:27.786Z,50.902405
2022-12-20T11:14:26.814Z,50.902397
2022-12-20T11:15:34.432Z,50.902401
2022-12-20T11:16:27.799Z,50.902397
2022-12-20T11:17:26.841Z,50.902409
2022-12-20T11:18:26.752Z,50.902416
2022-12-20T11:19:26.800Z,50.902424
2022-12-20T11:20:26.769Z,50.902401
2022-12-20T11:21:28.588Z,50.902416
2022-12-20T11:22:27.715Z,50.902397
2022-12-20T11:23:26.740Z,50.902405
2022-12-20T11:24:26.745Z,50.902390